KCAE/CAE METAR and TAF weather

Enter ICAO airport designator
Station Type Date Time Source
KCAE METAR 2018/07/21 21:56 UTC NOAA

KCAE 212156Z 25006G14KT 10SM FEW047 FEW070 SCT200 33/21 A2975 RMK AO2 SLP071 T03330211


Station Type Date Time Source
KCAE Decoded METAR 2018/07/21 21:56 UTC NOAA

COLUMBIA METROPOLITAN AIRPORT , SC, United States (KCAE) 33-57N 081-07W 73M
Jul 21, 2018 - 05:56 PM EDT / 2018.07.21 2156 UTC
Wind: from the WSW (250 degrees) at 7 MPH (6 KT) gusting to 16 MPH (14 KT):0
Visibility: 10 mile(s):0
Sky conditions: partly cloudy
Temperature: 91.9 F (33.3 C)
Heat index: 97.3 F (36.3 C):1
Dew Point: 70.0 F (21.1 C)
Relative Humidity: 48%
Pressure (altimeter): 29.75 in. Hg (1007 hPa)
ob: KCAE 212156Z 25006G14KT 10SM FEW047 FEW070 SCT200 33/21 A2975 RMK AO2 SLP071 T03330211
cycle: 22

Station Type Date Time Source
KCAE TAF 2018/07/21 21:42 UTC NOAA

TAF
AMD KCAE 212040Z 2121/2218 20011KT P6SM SCT050 BKN150
FM212300 21007KT P6SM VCTS BKN035CB BKN120
FM220800 VRB05KT P6SM SCT010 BKN060
FM221600 25008KT P6SM SCT250


Example: see airport list